createdAt,value
2019-06-20T00:02:04.952Z,99.90
2019-06-20T00:04:33.344Z,99.90
2019-06-20T00:07:01.707Z,99.90
2019-06-20T00:09:30.084Z,99.90
2019-06-20T00:11:58.472Z,99.90
2019-06-20T00:14:26.866Z,99.90
2019-06-20T00:16:55.236Z,99.90
2019-06-20T00:19:23.608Z,99.90
2019-06-20T00:21:52.309Z,99.90
2019-06-20T00:24:20.714Z,99.90
2019-06-20T00:26:49.198Z,99.90
2019-06-20T00:29:17.604Z,99.90
2019-06-20T00:31:46.015Z,99.90
2019-06-20T00:34:14.383Z,99.90
2019-06-20T00:36:42.773Z,99.90
2019-06-20T00:39:11.146Z,99.90
2019-06-20T00:41:39.602Z,99.90
2019-06-20T00:44:07.968Z,99.90
2019-06-20T00:46:36.352Z,99.90
2019-06-20T00:49:04.896Z,99.90
2019-06-20T00:51:33.279Z,99.90
2019-06-20T00:54:01.657Z,99.90
2019-06-20T00:56:30.031Z,99.90
2019-06-20T00:58:58.415Z,99.90
2019-06-20T01:01:26.799Z,99.90
2019-06-20T01:03:55.183Z,99.90
2019-06-20T01:06:23.560Z,99.90
2019-06-20T01:08:51.948Z,99.90
2019-06-20T01:11:20.388Z,99.90
2019-06-20T01:13:48.791Z,99.90
2019-06-20T01:16:17.175Z,99.90
2019-06-20T01:18:45.554Z,99.90
2019-06-20T01:21:13.944Z,99.90
2019-06-20T01:23:42.323Z,99.90
2019-06-20T01:26:10.712Z,99.90
2019-06-20T01:28:39.087Z,99.90
2019-06-20T01:31:07.480Z,99.90
2019-06-20T01:33:35.851Z,99.90
2019-06-20T01:36:04.307Z,99.90
2019-06-20T01:38:32.684Z,99.90
2019-06-20T01:41:01.063Z,99.90
2019-06-20T01:43:29.451Z,99.90
2019-06-20T01:45:57.856Z,99.90
2019-06-20T01:48:26.219Z,99.90
2019-06-20T01:50:54.606Z,99.90
2019-06-20T01:53:22.977Z,99.90
2019-06-20T01:55:51.363Z,99.90
2019-06-20T01:58:20.015Z,99.90
2019-06-20T02:00:50.812Z,99.90
2019-06-20T02:03:20.331Z,99.90
2019-06-20T02:05:48.863Z,99.90
2019-06-20T02:08:17.251Z,99.90
2019-06-20T02:10:45.639Z,99.90
2019-06-20T02:13:14.032Z,99.90
2019-06-20T02:15:42.412Z,99.90
2019-06-20T02:18:10.940Z,99.90
2019-06-20T02:20:45.139Z,99.90
2019-06-20T02:23:13.521Z,99.90
2019-06-20T02:25:41.899Z,99.90
2019-06-20T02:28:10.277Z,99.90
2019-06-20T02:30:38.665Z,99.90
2019-06-20T02:33:07.047Z,99.90
2019-06-20T02:35:35.418Z,99.90
2019-06-20T02:38:03.811Z,99.90
2019-06-20T02:40:32.479Z,99.90
2019-06-20T02:43:00.863Z,99.90
2019-06-20T02:45:29.244Z,99.90
2019-06-20T02:47:57.869Z,99.90
2019-06-20T02:50:27.388Z,99.90
2019-06-20T02:52:56.059Z,99.90
2019-06-20T02:55:24.423Z,99.90
2019-06-20T02:57:52.812Z,99.90
2019-06-20T03:00:33.200Z,99.90
2019-06-20T03:03:01.949Z,99.90
2019-06-20T03:05:30.343Z,99.90
2019-06-20T03:07:58.717Z,99.90
2019-06-20T03:10:27.167Z,99.90
2019-06-20T03:12:55.543Z,99.90
2019-06-20T03:15:23.921Z,99.90
2019-06-20T03:17:52.315Z,99.90
2019-06-20T03:20:20.788Z,99.90
2019-06-20T03:22:49.156Z,99.90
2019-06-20T03:25:20.268Z,99.90
2019-06-20T03:27:48.654Z,99.90
2019-06-20T03:30:17.778Z,99.90
2019-06-20T03:32:46.158Z,99.90
2019-06-20T03:35:14.605Z,99.90
2019-06-20T03:37:42.997Z,99.90
2019-06-20T03:40:11.816Z,99.90
2019-06-20T03:42:40.209Z,99.90
2019-06-20T03:45:09.117Z,99.90
2019-06-20T03:47:37.500Z,99.90
2019-06-20T03:50:08.285Z,99.90
2019-06-20T03:52:36.668Z,99.90
2019-06-20T03:55:06.003Z,99.90
2019-06-20T03:57:34.397Z,99.90
2019-06-20T04:00:04.362Z,99.90
2019-06-20T04:02:32.752Z,99.90
2019-06-20T04:05:01.152Z,99.90
2019-06-20T04:07:29.539Z,99.90
2019-06-20T04:09:57.916Z,99.90
2019-06-20T04:12:26.317Z,99.90
2019-06-20T04:14:54.692Z,99.90
2019-06-20T04:17:23.090Z,99.90
2019-06-20T04:19:51.506Z,99.90
2019-06-20T04:22:19.939Z,99.90
2019-06-20T04:24:48.324Z,99.90
2019-06-20T04:27:16.716Z,99.90
2019-06-20T04:29:45.124Z,99.90
2019-06-20T04:32:13.509Z,99.90
2019-06-20T04:34:41.911Z,99.90
2019-06-20T04:37:10.291Z,99.90
2019-06-20T04:39:38.679Z,99.90
2019-06-20T04:42:07.065Z,99.90
2019-06-20T04:44:35.461Z,99.90
2019-06-20T04:47:05.484Z,99.90
2019-06-20T04:49:33.864Z,99.90
2019-06-20T04:52:02.285Z,99.90
2019-06-20T04:54:30.668Z,99.90
2019-06-20T04:56:59.048Z,99.90
2019-06-20T04:59:27.440Z,99.90
2019-06-20T05:01:55.830Z,99.90
2019-06-20T05:04:24.213Z,99.90
2019-06-20T05:06:58.208Z,99.90
2019-06-20T05:09:26.591Z,99.90
2019-06-20T05:11:54.972Z,99.90
2019-06-20T05:14:23.367Z,99.90
2019-06-20T05:16:51.749Z,99.90
2019-06-20T05:19:20.145Z,99.90
2019-06-20T05:21:48.524Z,99.90
2019-06-20T05:24:16.969Z,99.90
2019-06-20T05:26:45.400Z,99.90
2019-06-20T05:29:13.774Z,99.90
2019-06-20T05:31:42.453Z,99.90
2019-06-20T05:34:10.842Z,99.90
2019-06-20T05:36:39.223Z,99.90
2019-06-20T05:39:07.612Z,99.90
2019-06-20T05:41:36.262Z,99.90
2019-06-20T05:44:04.652Z,99.90
2019-06-20T05:46:33.033Z,99.90
2019-06-20T05:49:01.432Z,99.90
2019-06-20T05:51:29.820Z,99.90
2019-06-20T05:53:58.196Z,99.90
2019-06-20T05:56:26.592Z,99.90
2019-06-20T05:58:54.994Z,99.90
2019-06-20T06:01:23.392Z,99.90
2019-06-20T06:03:51.771Z,99.90
2019-06-20T06:06:20.166Z,99.90
2019-06-20T06:09:07.888Z,99.90
2019-06-20T06:11:36.288Z,99.90
2019-06-20T06:14:04.747Z,99.90
2019-06-20T06:16:33.143Z,99.90
2019-06-20T06:19:01.528Z,99.90
2019-06-20T06:21:29.932Z,99.90
2019-06-20T06:23:58.319Z,99.90
2019-06-20T06:26:26.710Z,99.90
2019-06-20T06:28:55.108Z,99.90
2019-06-20T06:31:23.496Z,99.90
2019-06-20T06:33:51.883Z,99.90
2019-06-20T06:36:20.343Z,99.90
2019-06-20T06:38:48.737Z,99.90
2019-06-20T06:41:17.129Z,99.90
2019-06-20T06:43:45.514Z,99.90
2019-06-20T06:46:13.910Z,99.90
2019-06-20T06:48:42.389Z,99.90
2019-06-20T06:51:10.824Z,99.90
2019-06-20T06:53:39.212Z,99.90
2019-06-20T06:56:07.608Z,99.90
2019-06-20T06:58:35.991Z,99.90
2019-06-20T07:01:04.383Z,99.90
2019-06-20T07:03:33.035Z,99.90
2019-06-20T07:06:01.495Z,99.90
2019-06-20T07:08:29.880Z,99.90
2019-06-20T07:10:58.263Z,99.90
2019-06-20T07:13:26.664Z,99.90
2019-06-20T07:15:55.051Z,99.90
2019-06-20T07:18:23.476Z,99.90
2019-06-20T07:20:51.905Z,99.90
2019-06-20T07:23:20.302Z,99.90
2019-06-20T07:25:48.684Z,99.90
2019-06-20T07:28:17.085Z,99.90
2019-06-20T07:30:45.475Z,99.90
2019-06-20T07:33:13.861Z,98.60
2019-06-20T07:35:42.328Z,97.80
2019-06-20T07:38:10.717Z,97.40
2019-06-20T07:40:39.115Z,99.30
2019-06-20T07:43:07.773Z,99.50
2019-06-20T07:45:36.153Z,99.60
2019-06-20T07:48:04.715Z,99.90
2019-06-20T07:50:33.100Z,97.80
2019-06-20T07:53:02.948Z,96.50
2019-06-20T07:55:31.471Z,98.50
2019-06-20T07:57:59.859Z,97.10
2019-06-20T08:00:28.563Z,96.70
2019-06-20T08:02:57.242Z,96.80
2019-06-20T08:05:25.720Z,97.00
2019-06-20T08:07:54.198Z,96.80
2019-06-20T08:10:23.132Z,97.60
2019-06-20T08:12:51.532Z,98.10
2019-06-20T08:15:20.150Z,99.70
2019-06-20T08:17:48.720Z,98.70
2019-06-20T08:20:18.148Z,95.70
2019-06-20T08:22:46.608Z,94.00
2019-06-20T08:25:15.745Z,94.80
2019-06-20T08:27:51.573Z,94.90
2019-06-20T08:30:33.745Z,94.10
2019-06-20T08:33:07.541Z,95.30
2019-06-20T08:35:32.958Z,96.30
2019-06-20T08:38:03.731Z,98.00
2019-06-20T08:40:36.071Z,98.80
2019-06-20T08:43:06.099Z,98.80
2019-06-20T08:45:36.879Z,97.80
2019-06-20T08:48:05.275Z,94.40
2019-06-20T08:50:33.732Z,92.60
2019-06-20T08:53:03.513Z,91.80
2019-06-20T08:55:32.104Z,92.90
2019-06-20T08:58:01.588Z,94.60
2019-06-20T09:00:31.933Z,95.00
2019-06-20T09:03:00.595Z,97.10
2019-06-20T09:05:30.824Z,98.30
2019-06-20T09:10:38.829Z,98.40
2019-06-20T09:13:08.268Z,98.80
2019-06-20T09:15:37.065Z,97.20
2019-06-20T09:18:06.616Z,94.40
2019-06-20T09:20:35.769Z,92.10
2019-06-20T09:23:04.998Z,92.70
2019-06-20T09:25:33.396Z,95.00
2019-06-20T09:28:02.626Z,96.80
2019-06-20T09:30:31.519Z,96.70
2019-06-20T09:33:00.052Z,97.20
2019-06-20T09:35:28.444Z,97.20
2019-06-20T09:37:57.142Z,97.00
2019-06-20T09:40:26.184Z,96.60
2019-06-20T09:42:54.601Z,95.20
2019-06-20T09:45:23.276Z,94.30
2019-06-20T09:47:52.197Z,91.20
2019-06-20T09:50:21.659Z,85.00
2019-06-20T09:52:51.375Z,74.30
2019-06-20T09:55:20.169Z,62.50
2019-06-20T09:57:49.109Z,63.00
2019-06-20T10:00:21.459Z,61.60
2019-06-20T10:02:50.660Z,59.50
2019-06-20T10:05:20.297Z,66.40
2019-06-20T10:07:49.937Z,64.80
2019-06-20T10:10:19.267Z,71.00
2019-06-20T10:12:47.991Z,82.30
2019-06-20T10:15:22.704Z,86.10
2019-06-20T10:17:52.140Z,86.90
2019-06-20T10:20:22.551Z,92.30
2019-06-20T10:22:51.039Z,94.50
2019-06-20T10:25:20.344Z,93.60
2019-06-20T10:27:49.761Z,94.60
2019-06-20T10:30:21.245Z,96.30
2019-06-20T10:32:50.979Z,96.20
2019-06-20T10:35:20.378Z,98.70
2019-06-20T10:37:50.220Z,98.80
2019-06-20T10:40:20.165Z,98.20
2019-06-20T10:42:48.554Z,99.90
2019-06-20T10:45:19.920Z,99.20
2019-06-20T10:47:49.001Z,99.40
2019-06-20T10:50:18.003Z,98.10
2019-06-20T10:52:48.075Z,97.50
2019-06-20T10:55:16.920Z,96.60
2019-06-20T10:57:46.701Z,96.90
2019-06-20T11:00:30.129Z,97.80
2019-06-20T11:02:47.441Z,94.30
2019-06-20T11:05:17.582Z,94.30
2019-06-20T11:07:45.984Z,93.70
2019-06-20T11:10:16.995Z,94.40
2019-06-20T11:12:50.162Z,92.40
2019-06-20T11:15:16.223Z,86.40
2019-06-20T11:17:44.931Z,88.00
2019-06-20T11:20:15.315Z,89.70
2019-06-20T11:22:43.693Z,90.30
2019-06-20T11:25:12.729Z,90.60
2019-06-20T11:27:41.112Z,85.80
2019-06-20T11:30:12.580Z,81.10
2019-06-20T11:32:41.060Z,83.70
2019-06-20T11:35:09.812Z,89.40
2019-06-20T11:37:38.202Z,90.50
2019-06-20T11:40:07.348Z,92.20
2019-06-20T11:42:36.081Z,95.00
2019-06-20T11:45:06.184Z,96.60
2019-06-20T11:47:35.499Z,95.40
2019-06-20T11:50:08.768Z,96.00
2019-06-20T11:52:41.039Z,96.80
2019-06-20T11:55:08.966Z,97.60
2019-06-20T11:57:37.344Z,97.90
2019-06-20T12:00:07.169Z,98.20
2019-06-20T12:02:35.635Z,97.90
2019-06-20T12:05:07.424Z,97.80
2019-06-20T12:07:35.807Z,96.50
2019-06-20T12:10:08.292Z,96.60
2019-06-20T12:12:39.116Z,96.30
2019-06-20T12:15:08.304Z,96.80
2019-06-20T12:17:38.201Z,96.10
2019-06-20T12:20:08.640Z,96.00
2019-06-20T12:22:38.295Z,97.90
2019-06-20T12:25:07.759Z,98.70
2019-06-20T12:27:36.142Z,99.80
2019-06-20T12:30:12.572Z,99.40
2019-06-20T12:32:42.383Z,99.10
2019-06-20T12:35:11.952Z,99.60
2019-06-20T12:37:40.584Z,99.90
2019-06-20T12:40:09.840Z,99.90
2019-06-20T12:42:40.907Z,99.90
2019-06-20T12:45:09.748Z,99.90
2019-06-20T12:47:38.842Z,99.90
2019-06-20T12:50:08.686Z,99.90
2019-06-20T12:52:37.629Z,99.90
2019-06-20T12:55:07.963Z,99.90
2019-06-20T12:57:38.457Z,99.90
2019-06-20T13:00:12.279Z,99.90
2019-06-20T13:02:42.060Z,99.90
2019-06-20T13:05:11.419Z,99.90
2019-06-20T13:07:40.693Z,99.90
2019-06-20T13:10:11.063Z,99.90
2019-06-20T13:12:40.755Z,99.90
2019-06-20T13:15:09.824Z,99.90
2019-06-20T13:17:39.940Z,99.90
2019-06-20T13:20:08.760Z,99.90
2019-06-20T13:22:37.841Z,99.90
2019-06-20T13:25:07.992Z,99.90
2019-06-20T13:27:36.380Z,99.90
2019-06-20T13:30:09.623Z,99.90
2019-06-20T13:32:38.490Z,99.90
2019-06-20T13:35:09.700Z,99.10
2019-06-20T13:37:38.225Z,99.00
2019-06-20T13:40:11.928Z,98.20
2019-06-20T13:42:42.114Z,99.10
2019-06-20T13:45:19.460Z,99.50
2019-06-20T13:47:47.916Z,99.90
2019-06-20T13:50:16.468Z,99.90
2019-06-20T13:52:46.708Z,99.90
2019-06-20T13:55:15.115Z,99.40
2019-06-20T13:57:53.473Z,99.70
2019-06-20T14:00:23.971Z,99.40
2019-06-20T14:02:52.424Z,99.90
2019-06-20T14:05:20.987Z,99.90
2019-06-20T14:07:53.281Z,99.90
2019-06-20T14:10:20.394Z,99.90
2019-06-20T14:12:49.230Z,99.10
2019-06-20T14:15:19.429Z,99.90
2019-06-20T14:17:49.759Z,98.90
2019-06-20T14:20:18.655Z,97.40
2019-06-20T14:22:47.051Z,96.70
2019-06-20T14:25:15.952Z,97.10
2019-06-20T14:27:46.033Z,96.30
2019-06-20T14:30:15.237Z,96.20
2019-06-20T14:32:43.616Z,95.00
2019-06-20T14:35:31.356Z,96.90
2019-06-20T14:38:00.190Z,95.10
2019-06-20T14:40:28.568Z,93.30
2019-06-20T14:42:56.948Z,91.70
2019-06-20T14:45:25.335Z,93.50
2019-06-20T14:47:55.092Z,91.50
2019-06-20T14:50:23.817Z,92.30
2019-06-20T14:52:52.741Z,94.10
2019-06-20T14:55:22.576Z,90.70
2019-06-20T14:57:52.323Z,91.70
2019-06-20T15:00:23.076Z,91.80
2019-06-20T15:02:54.728Z,91.70
2019-06-20T15:05:21.631Z,93.20
2019-06-20T15:07:51.705Z,95.20
2019-06-20T15:10:21.103Z,93.90
2019-06-20T15:12:50.288Z,95.80
2019-06-20T15:15:19.927Z,95.00
2019-06-20T15:17:51.428Z,94.40
2019-06-20T15:20:18.759Z,94.60
2019-06-20T15:22:48.805Z,94.30
2019-06-20T15:25:17.395Z,94.70
2019-06-20T15:27:47.489Z,93.00
2019-06-20T15:30:16.723Z,92.30
2019-06-20T15:32:55.680Z,93.60
2019-06-20T15:35:15.228Z,93.60
2019-06-20T15:37:43.639Z,93.60
2019-06-20T15:40:13.100Z,93.80
2019-06-20T15:42:41.568Z,92.90
2019-06-20T15:45:10.324Z,94.00
2019-06-20T15:47:38.865Z,94.30
2019-06-20T15:50:08.229Z,93.40
2019-06-20T15:52:36.617Z,94.60
2019-06-20T15:55:08.399Z,95.30
2019-06-20T15:57:36.793Z,94.20
2019-06-20T16:00:08.008Z,93.20
2019-06-20T16:02:36.365Z,94.70
2019-06-20T16:05:09.275Z,94.70
2019-06-20T16:07:37.749Z,94.00
2019-06-20T16:10:09.833Z,93.70
2019-06-20T16:12:38.249Z,92.40
2019-06-20T16:15:10.535Z,91.30
2019-06-20T16:17:39.732Z,91.90
2019-06-20T16:20:08.775Z,87.50
2019-06-20T16:22:37.254Z,90.60
2019-06-20T16:25:08.696Z,92.30
2019-06-20T16:27:37.144Z,91.30
2019-06-20T16:30:09.196Z,90.40
2019-06-20T16:32:37.653Z,89.00
2019-06-20T16:35:09.524Z,91.10
2019-06-20T16:37:37.912Z,92.00
2019-06-20T16:40:10.780Z,92.30
2019-06-20T16:42:39.157Z,92.60
2019-06-20T16:45:08.587Z,91.80
2019-06-20T16:47:37.047Z,91.40
2019-06-20T16:50:07.144Z,91.40
2019-06-20T16:52:35.545Z,91.80
2019-06-20T16:55:05.073Z,93.60
2019-06-20T16:57:33.447Z,94.80
2019-06-20T17:00:01.960Z,95.90
2019-06-20T17:02:30.804Z,96.60
2019-06-20T17:04:59.184Z,96.40
2019-06-20T17:07:27.586Z,97.10
2019-06-20T17:09:55.972Z,98.40
2019-06-20T17:12:24.357Z,99.90
2019-06-20T17:14:52.765Z,99.90
2019-06-20T17:17:21.148Z,99.90
2019-06-20T17:19:49.546Z,99.90
2019-06-20T17:22:18.204Z,99.90
2019-06-20T17:24:46.589Z,99.90
2019-06-20T17:27:14.985Z,99.90
2019-06-20T17:29:43.368Z,99.90
2019-06-20T17:32:11.765Z,99.90
2019-06-20T17:34:40.149Z,99.90
2019-06-20T17:37:08.531Z,99.90
2019-06-20T17:39:36.930Z,99.90
2019-06-20T17:42:05.323Z,99.90
2019-06-20T17:44:33.708Z,99.90
2019-06-20T17:47:02.104Z,99.90
2019-06-20T17:49:30.489Z,99.90
2019-06-20T17:51:58.880Z,99.90
2019-06-20T17:54:27.278Z,99.90
2019-06-20T17:56:55.663Z,99.90
2019-06-20T17:59:24.048Z,99.90
2019-06-20T18:01:52.465Z,99.90
2019-06-20T18:04:20.857Z,99.90
2019-06-20T18:06:49.310Z,99.90
2019-06-20T18:09:17.711Z,99.90
2019-06-20T18:11:46.106Z,99.90
2019-06-20T18:14:14.526Z,99.90
2019-06-20T18:16:43.267Z,99.90
2019-06-20T18:19:11.670Z,99.90
2019-06-20T18:21:40.052Z,99.90
2019-06-20T18:24:08.450Z,99.90
2019-06-20T18:26:36.829Z,99.90
2019-06-20T18:29:05.281Z,99.90
2019-06-20T18:31:33.688Z,99.90
2019-06-20T18:34:02.074Z,99.90
2019-06-20T18:36:30.475Z,99.90
2019-06-20T18:38:58.877Z,99.90
2019-06-20T18:41:27.256Z,99.90
2019-06-20T18:43:55.662Z,99.90
2019-06-20T18:46:24.044Z,99.90
2019-06-20T18:48:52.450Z,99.90
2019-06-20T18:51:20.829Z,99.90
2019-06-20T18:53:50.700Z,99.90
2019-06-20T18:56:19.281Z,99.90
2019-06-20T18:58:47.660Z,99.90
2019-06-20T19:01:16.053Z,99.90
2019-06-20T19:03:44.440Z,99.90
2019-06-20T19:06:12.846Z,99.90
2019-06-20T19:08:41.253Z,99.90
2019-06-20T19:11:09.645Z,99.90
2019-06-20T19:13:38.087Z,99.90
2019-06-20T19:16:06.539Z,99.90
2019-06-20T19:18:34.972Z,99.90
2019-06-20T19:21:03.364Z,99.90
2019-06-20T19:23:31.779Z,99.90
2019-06-20T19:26:00.208Z,99.90
2019-06-20T19:28:28.589Z,99.90
2019-06-20T19:30:56.982Z,99.90
2019-06-20T19:33:25.373Z,99.90
2019-06-20T19:35:53.756Z,99.90
2019-06-20T19:38:22.156Z,99.90
2019-06-20T19:40:51.211Z,99.90
2019-06-20T19:43:20.005Z,99.90
2019-06-20T19:45:48.415Z,99.90
2019-06-20T19:48:16.875Z,99.90
2019-06-20T19:50:45.392Z,99.90
2019-06-20T19:53:13.931Z,99.90
2019-06-20T19:55:42.555Z,99.90
2019-06-20T19:58:11.276Z,99.90
2019-06-20T20:00:39.712Z,99.90
2019-06-20T20:03:08.210Z,99.90
2019-06-20T20:05:36.604Z,99.90
2019-06-20T20:08:05.491Z,99.90
2019-06-20T20:10:45.599Z,99.90
2019-06-20T20:13:15.482Z,99.90
2019-06-20T20:15:44.880Z,99.90
2019-06-20T20:18:13.827Z,99.90
2019-06-20T20:20:46.489Z,99.90
2019-06-20T20:23:13.568Z,99.90
2019-06-20T20:25:41.951Z,99.90
2019-06-20T20:28:10.353Z,99.90
2019-06-20T20:30:38.740Z,99.90
2019-06-20T20:33:07.136Z,99.90
2019-06-20T20:35:36.157Z,99.90
2019-06-20T20:38:04.755Z,99.90
2019-06-20T20:40:33.163Z,99.90
2019-06-20T20:43:01.527Z,99.90
2019-06-20T20:45:30.000Z,99.90
2019-06-20T20:47:58.399Z,99.90
2019-06-20T20:50:26.803Z,99.90
2019-06-20T20:52:55.255Z,99.90
2019-06-20T20:55:23.641Z,99.90
2019-06-20T20:57:52.064Z,99.90
2019-06-20T21:00:25.895Z,99.90
2019-06-20T21:02:54.731Z,99.90
2019-06-20T21:05:23.117Z,99.90
2019-06-20T21:07:51.508Z,99.90
2019-06-20T21:10:20.362Z,99.90
2019-06-20T21:12:48.811Z,99.90
2019-06-20T21:15:17.848Z,99.90
2019-06-20T21:17:46.259Z,99.90
2019-06-20T21:20:15.072Z,99.90
2019-06-20T21:22:43.460Z,99.90
2019-06-20T21:25:12.215Z,99.90
2019-06-20T21:27:40.620Z,99.90
2019-06-20T21:30:09.740Z,99.90
2019-06-20T21:32:38.141Z,99.90
2019-06-20T21:35:07.565Z,99.90
2019-06-20T21:37:35.959Z,99.90
2019-06-20T21:40:05.888Z,99.90
2019-06-20T21:42:34.291Z,99.90
2019-06-20T21:45:02.736Z,99.90
2019-06-20T21:47:31.119Z,99.90
2019-06-20T21:49:59.520Z,99.90
2019-06-20T21:52:27.912Z,99.90
2019-06-20T21:54:56.295Z,99.90
2019-06-20T21:57:24.677Z,99.90
2019-06-20T21:59:53.417Z,99.90
2019-06-20T22:02:21.877Z,99.90
2019-06-20T22:04:54.354Z,99.90
2019-06-20T22:07:20.372Z,99.90
2019-06-20T22:09:48.766Z,99.90
2019-06-20T22:12:17.162Z,99.90
2019-06-20T22:14:45.550Z,99.90
2019-06-20T22:17:13.945Z,99.90
2019-06-20T22:19:42.345Z,99.90
2019-06-20T22:22:10.743Z,99.90
2019-06-20T22:24:39.140Z,99.90
2019-06-20T22:27:07.540Z,99.90
2019-06-20T22:29:35.916Z,99.90
2019-06-20T22:32:04.313Z,99.90
2019-06-20T22:34:32.690Z,99.90
2019-06-20T22:37:01.081Z,99.90
2019-06-20T22:39:29.477Z,99.90
2019-06-20T22:41:57.866Z,99.90
2019-06-20T22:44:26.270Z,99.90
2019-06-20T22:46:54.659Z,99.90
2019-06-20T22:49:23.053Z,99.90
2019-06-20T22:51:51.453Z,99.90
2019-06-20T22:54:19.907Z,99.90
2019-06-20T22:56:48.292Z,99.90
2019-06-20T22:59:16.683Z,99.90
2019-06-20T23:01:45.067Z,99.90
2019-06-20T23:04:13.460Z,99.90
2019-06-20T23:06:55.318Z,99.90
2019-06-20T23:09:11.967Z,99.90
2019-06-20T23:11:40.370Z,99.90
2019-06-20T23:14:08.747Z,99.90
2019-06-20T23:16:37.131Z,99.90
2019-06-20T23:19:05.892Z,99.90
2019-06-20T23:21:34.280Z,99.90
2019-06-20T23:24:02.668Z,99.90
2019-06-20T23:26:31.058Z,99.90
2019-06-20T23:29:17.528Z,99.90
2019-06-20T23:31:45.923Z,99.90
2019-06-20T23:34:14.312Z,99.90
2019-06-20T23:36:42.692Z,99.90
2019-06-20T23:39:11.072Z,99.90
2019-06-20T23:41:39.469Z,99.90
2019-06-20T23:44:07.861Z,99.90
2019-06-20T23:46:36.244Z,99.90
2019-06-20T23:49:04.648Z,99.90
2019-06-20T23:51:34.676Z,99.90
2019-06-20T23:54:03.091Z,99.90
2019-06-20T23:56:31.489Z,99.90
2019-06-20T23:58:59.872Z,99.90
